• Join FlightAware (Why Join?)
  • Login
  • US Flag 
03:20AM EDT


 

Airport Tracker/Info


-or-


 

Live Flight TrackerFlight Track Log ✈ FFT532 ✈ 11-Jul-2013 ✈ KDEN - KMDW

Flight Track Log - Related Links

Times and Time Zones

All times are in EDT time to prevent confusion due to time zone crossing. See the FFT532 flight status page for this flight to view local times or setup timezone preferences in your user account.

Time Position Orientation Groundspeed Altitude Reporting Facility
EDT Latitude Longitude Course Direction KTS MPH feet Rate Location/Type
09:31AM 39.7680 -104.4110 87° East 329 379 10,300  Level FlightAware
09:31AM 39.7730 -104.3470 84° East 344 396 11,300 2,340 Climbing FlightAware
09:32AM 39.8050 -104.2770 59° Northeast 345 397 13,000 2,340 Climbing FlightAware
09:32AM 39.8130 -104.2450 72° East 351 404 13,500 2,220 Climbing FlightAware
09:33AM 39.8230 -104.1740 80° East 357 411 14,900 2,160 Climbing FlightAware
09:33AM 39.8350 -104.0900 79° East 367 422 16,200 1,800 Climbing FlightAware
09:34AM 39.8490 -103.9890 80° East 386 444 17,400 2,040 Climbing FlightAware
09:35AM 39.8630 -103.8890 80° East 384 442 19,200 2,160 Climbing FlightAware
09:36AM 39.8760 -103.7960 80° East 389 448 20,500 1,740 Climbing FlightAware
09:36AM 39.8890 -103.6950 80° East 397 457 21,700 1,560 Climbing FlightAware
09:37AM 39.8990 -103.6030 82° East 405 466 22,700 1,560 Climbing FlightAware
09:38AM 39.9110 -103.5010 81° East 411 473 23,800 1,380 Climbing FlightAware
09:38AM 39.9210 -103.4160 81° East 421 484 24,500 1,320 Climbing FlightAware
09:39AM 39.9330 -103.3010 82° East 427 491 25,600 1,440 Climbing FlightAware
09:40AM 39.9450 -103.1990 81° East 430 495 26,600 1,260 Climbing FlightAware
09:40AM 39.9570 -103.0910 82° East 440 506 27,400 1,080 Climbing FlightAware
09:41AM 39.9700 -102.9730 82° East 449 517 28,200 960 Climbing FlightAware
09:42AM 39.9810 -102.8650 82° East 456 525 28,800 960 Climbing FlightAware
09:42AM 39.9930 -102.7560 82° East 463 533 29,500 900 Climbing FlightAware
09:43AM 40.0030 -102.6600 82° East 471 542 30,000 1,020 Climbing FlightAware
09:44AM 40.0170 -102.5340 82° East 475 547 30,900 720 Climbing FlightAware
09:44AM 40.0270 -102.4320 83° East 479 551 31,000 60 Climbing FlightAware
09:45AM 40.0370 -102.3420 82° East 479 551 31,000  Level FlightAware
09:46AM 40.0470 -102.2550 81° East 479 551 31,000  Level FlightAware
09:46AM 40.0590 -102.1380 82° East 479 551 31,000  Level FlightAware
09:47AM 40.0690 -102.0500 82° East 479 551 31,000  Level FlightAware
09:48AM 40.0780 -101.9620 82° East 479 551 31,000  Level FlightAware
09:48AM 40.0910 -101.8450 82° East 479 551 31,000  Level FlightAware
09:49AM 40.1000 -101.7570 82° East 479 551 31,000  Level FlightAware
09:50AM 40.1130 -101.6400 82° East 479 551 31,000  Level FlightAware
09:50AM 40.1220 -101.5520 82° East 479 551 31,000  Level FlightAware
09:51AM 40.1350 -101.4350 82° East 479 551 31,000  Level FlightAware
09:52AM 40.1440 -101.3470 82° East 479 551 31,000  Level FlightAware
09:52AM 40.1530 -101.2600 82° East 479 551 31,000  Level FlightAware
09:53AM 40.1660 -101.1420 82° East 479 551 31,000  Level FlightAware
09:54AM 40.1760 -101.0520 82° East 479 551 31,000 5,580 Level FlightAware
09:55AM 40.1958 -100.6925 82° East 491 565 39,000 4,320 Climbing Minneapolis Center
09:56AM 40.2072 -100.5558 84° East 479 551 39,000  Level Minneapolis Center
10:01AM 40.2180 -99.5610 84° East 479 551 39,000  Level FlightAware
10:02AM 40.2200 -99.4730 88° East 479 551 39,000  Level FlightAware
10:05AM 40.2300 -98.9190 88° East 481 554 39,000  Level FlightAware
10:05AM 40.2550 -98.8010 74° East 478 550 39,000  Level FlightAware
10:06AM 40.2690 -98.6990 80° East 479 551 39,000  Level FlightAware
10:07AM 40.2890 -98.5560 80° East 480 552 39,000  Level FlightAware
10:08AM 40.3090 -98.4120 80° East 480 552 39,000  Level FlightAware
10:09AM 40.3280 -98.2630 80° East 481 554 39,000  Level FlightAware
10:09AM 40.3480 -98.1140 80° East 480 552 39,000  Level FlightAware
10:10AM 40.3680 -97.9650 80° East 481 554 39,000  Level FlightAware
10:11AM 40.3850 -97.8380 80° East 481 554 39,000  Level FlightAware
10:12AM 40.3960 -97.7530 80° East 482 555 39,000  Level FlightAware
10:13AM 40.4170 -97.5890 80° East 482 555 39,000  Level FlightAware
10:13AM 40.4290 -97.4970 80° East 483 556 39,000  Level FlightAware
10:14AM 40.4450 -97.3690 81° East 484 557 39,000  Level FlightAware
10:14AM 40.4600 -97.2540 80° East 486 559 39,000  Level FlightAware
10:15AM 40.4760 -97.1240 81° East 488 562 39,000  Level FlightAware
10:16AM 40.4910 -97.0050 81° East 489 563 39,000  Level FlightAware
10:17AM 40.5070 -96.8770 81° East 488 562 39,000  Level FlightAware
10:17AM 40.5210 -96.7590 81° East 486 559 39,000  Level FlightAware
10:18AM 40.5350 -96.6400 81° East 486 559 39,000  Level FlightAware
10:19AM 40.5490 -96.5240 81° East 485 558 39,000  Level FlightAware
10:19AM 40.5650 -96.3910 81° East 485 558 39,000 -120 Level FlightAware
10:20AM 40.5790 -96.2710 81° East 485 558 38,900 -120 Descending FlightAware
10:21AM 40.5930 -96.1480 81° East 487 560 38,900 60 Level FlightAware
10:22AM 40.6080 -96.0160 81° East 489 563 39,000 60 Climbing FlightAware
10:22AM 40.6190 -95.9230 81° East 491 565 39,000  Level FlightAware
10:23AM 40.6340 -95.7930 81° East 492 566 39,000  Level FlightAware
10:23AM 40.6470 -95.6730 82° East 494 568 39,000  Level FlightAware
10:24AM 40.6620 -95.5430 81° East 494 568 39,000  Level FlightAware
10:25AM 40.6740 -95.4260 82° East 492 566 39,000  Level FlightAware
10:26AM 40.6870 -95.3080 82° East 492 566 39,000  Level FlightAware
10:26AM 40.7010 -95.1790 82° East 491 565 39,000  Level FlightAware
10:27AM 40.7150 -95.0460 82° East 491 565 39,000  Level FlightAware
10:28AM 40.7300 -94.9060 82° East 492 566 39,000  Level FlightAware
10:28AM 40.7420 -94.7930 82° East 493 567 39,000  Level FlightAware
10:29AM 40.7540 -94.6780 82° East 493 567 39,000  Level FlightAware
10:30AM 40.7660 -94.5580 82° East 494 568 39,000  Level FlightAware
10:30AM 40.7780 -94.4380 82° East 495 570 39,000  Level FlightAware
10:31AM 40.7910 -94.3090 82° East 497 572 39,000  Level FlightAware
10:32AM 40.8050 -94.1650 83° East 499 574 39,000  Level FlightAware
10:33AM 40.8160 -94.0540 83° East 499 574 39,000  Level FlightAware
10:33AM 40.8280 -93.9220 83° East 498 573 39,000  Level FlightAware
10:34AM 40.8370 -93.8390 82° East 498 573 39,000  Level FlightAware
10:34AM 40.8490 -93.7050 83° East 497 572 39,000 -120 Level FlightAware
10:35AM 40.8610 -93.5770 83° East 497 572 38,900 -120 Descending FlightAware
10:36AM 40.8720 -93.4570 83° East 497 572 38,900  Level FlightAware
10:37AM 40.8910 -93.2460 83° East 499 574 39,000  Climbing FlightAware
10:38AM 40.9020 -93.1250 83° East 501 577 39,000  Level FlightAware
10:38AM 40.9130 -92.9930 84° East 502 578 39,000  Level FlightAware
10:39AM 40.9240 -92.8710 83° East 503 579 39,000  Level FlightAware
10:40AM 40.9350 -92.7360 84° East 504 580 39,000 -240 Level FlightAware
10:42AM 40.9740 -92.2680 84° East 504 580 38,300 -420 Descending FlightAware
10:43AM 40.9820 -92.1740 84° East 499 574 37,800 -1,560 Descending FlightAware
10:44AM 40.9930 -92.0350 84° East 494 568 36,300 -2,220 Descending FlightAware
10:44AM 41.0040 -91.9010 84° East 487 560 34,500 -2,220 Descending FlightAware
10:45AM 41.0130 -91.7790 84° East 486 559 33,100 -960 Descending FlightAware
10:46AM 41.0260 -91.6190 84° East 490 564 32,900 -1,020 Descending FlightAware
10:47AM 41.0340 -91.4990 85° East 489 563 31,600 -1,500 Descending FlightAware
10:47AM 41.0440 -91.3760 84° East 491 565 31,000 -660 Descending FlightAware
10:48AM 41.0530 -91.2480 85° East 491 565 30,700 -1,200 Descending FlightAware
10:49AM 41.0600 -91.1440 85° East 492 566 29,500 -2,100 Descending FlightAware
10:49AM 41.0700 -91.0090 84° East 472 543 27,800 -2,160 Descending FlightAware
10:50AM 41.0780 -90.8920 85° East 456 525 26,400 -2,040 Descending FlightAware
10:51AM 41.0870 -90.7630 85° East 441 507 24,900 -1,800 Descending FlightAware
10:51AM 41.0930 -90.6680 85° East 436 502 24,000 -900 Descending FlightAware
10:52AM 41.1010 -90.5520 85° East 439 505 23,700 -480 Descending FlightAware
10:53AM 41.1090 -90.4320 85° East 439 505 23,300 -600 Descending FlightAware
10:54AM 41.1150 -90.3250 86° East 435 501 22,900 -1,080 Descending FlightAware
10:54AM 41.1220 -90.2120 85° East 426 490 21,900 -1,680 Descending FlightAware
10:55AM 41.1290 -90.1110 85° East 423 487 20,700 -1,860 Descending FlightAware
10:56AM 41.1350 -90.0030 86° East 414 476 19,400 -1,800 Descending FlightAware
10:56AM 41.1410 -89.9050 85° East 403 464 18,300 -1,680 Descending FlightAware
10:57AM 41.1470 -89.8060 85° East 400 460 17,200 -1,680 Descending FlightAware
10:58AM 41.1530 -89.7110 85° East 396 456 16,100 -1,560 Descending FlightAware
10:58AM 41.1590 -89.6110 85° East 386 444 15,100 -1,200 Descending FlightAware
10:59AM 41.1640 -89.5210 86° East 376 433 14,500 -780 Descending FlightAware
11:00AM 41.1710 -89.4310 84° East 377 434 14,100 -540 Descending FlightAware
11:00AM 41.1780 -89.3210 85° East 376 433 13,800 -240 Descending FlightAware
11:01AM 41.1860 -89.2280 83° East 373 429 13,800  Level FlightAware
11:02AM 41.2150 -89.1480 64° Northeast 365 420 13,800 -360 Level FlightAware
11:03AM 41.2500 -89.0620 62° Northeast 344 396 13,300 -1,080 Descending FlightAware
11:03AM 41.2760 -89.0010 60° Northeast 335 386 12,400 -1,500 Descending FlightAware
11:04AM 41.3050 -88.9280 62° Northeast 322 371 11,500 -1,440 Descending FlightAware
11:04AM 41.3350 -88.8550 61° Northeast 305 351 10,400 -1,200 Descending FlightAware
11:05AM 41.3560 -88.8030 62° Northeast 286 329 10,000 -780 Descending FlightAware
11:05AM 41.3650 -88.7810 61° Northeast 275 316 9,800 -960 Descending FlightAware
11:06AM 41.3820 -88.7370 63° Northeast 279 321 9,300 -1,320 Descending FlightAware
11:06AM 41.4000 -88.6940 61° Northeast 280 322 8,600 -1,440 Descending FlightAware
11:07AM 41.4100 -88.6690 62° Northeast 275 316 8,200 -1,440 Descending FlightAware
11:07AM 41.4250 -88.6330 61° Northeast 270 311 7,600 -1,500 Descending FlightAware
11:07AM 41.4320 -88.6150 63° Northeast 269 310 7,300 -1,380 Descending FlightAware
11:08AM 41.4510 -88.5670 62° Northeast 265 305 6,600 -1,320 Descending FlightAware
11:08AM 41.4590 -88.5480 61° Northeast 264 304 6,300 -1,020 Descending FlightAware
11:08AM 41.4750 -88.5070 62° Northeast 263 303 5,900 -540 Descending FlightAware
11:09AM 41.4900 -88.4670 63° Northeast 266 306 5,800 -120 Descending FlightAware
11:09AM 41.5060 -88.4260 62° Northeast 265 305 5,800 -480 Level FlightAware
11:10AM 41.5180 -88.3940 63° Northeast 261 300 5,400 -1,140 Descending FlightAware
11:10AM 41.5320 -88.3580 63° Northeast 251 289 4,900 -1,080 Descending FlightAware
11:10AM 41.5400 -88.3360 64° Northeast 242 278 4,700 -780 Descending FlightAware
11:10AM 41.5440 -88.3250 64° Northeast 238 274 4,600 -720 Descending FlightAware
11:11AM 41.5570 -88.2810 68° East 223 257 4,100 -720 Descending FlightAware
11:12AM 41.5700 -88.2350 69° East 218 251 3,800 -240 Descending FlightAware
11:12AM 41.5790 -88.1980 72° East 183 211 3,900 60 Climbing FlightAware
11:13AM 41.5870 -88.1700 69° East 176 203 3,900  Level FlightAware
11:13AM 41.5910 -88.1530 73° East 170 196 3,900  Level FlightAware
11:13AM 41.5970 -88.1320 69° East 166 191 3,900  Level FlightAware
11:14AM 41.6040 -88.1020 73° East 165 190 3,900  Level FlightAware
11:14AM 41.6120 -88.0740 69° East 169 194 3,900  Level FlightAware
11:15AM 41.6170 -88.0530 72° East 166 191 3,900  Level FlightAware
11:15AM 41.6240 -88.0260 71° East 165 190 3,900 -120 Level FlightAware
11:16AM 41.6320 -87.9980 69° East 167 192 3,800  Descending FlightAware
11:16AM 41.6350 -87.9850 73° East 163 188 3,900 120 Climbing FlightAware
11:16AM 41.6420 -87.9610 69° East 165 190 3,900  Level FlightAware
11:17AM 41.6490 -87.9320 72° East 165 190 3,900 -180 Level FlightAware
11:17AM 41.6560 -87.9150 61° Northeast 165 190 3,800 -660 Descending FlightAware
11:18AM 41.6720 -87.8950 43° Northeast 169 194 3,400 -1,020 Descending FlightAware
11:18AM 41.6880 -87.8750 43° Northeast 163 188 2,900 -1,020 Descending FlightAware
11:18AM 41.7030 -87.8560 43° Northeast 160 184 2,500 -900 Descending FlightAware
11:19AM 41.7090 -87.8470 48° Northeast 160 184 2,300 -840 Descending FlightAware
11:19AM 41.7260 -87.8270 41° Northeast 147 169 1,900 -720 Descending FlightAware
11:20AM 41.7390 -87.8100 44° Northeast 129 148 1,600 -780 Descending FlightAware
11:20AM 41.7520 -87.7940 43° Northeast 130 150 1,200 -420 Descending FlightAware
11:21AM 41.7670 -87.7740 45° Northeast 125 144 1,100 -180 Descending FlightAware
11:29AM 41.7833 -87.7500 51° Northeast  Level FlightAware Approximate